Time;durP1;ratioP1;P1;durP2;ratioP2;P2;SDS_P1;SDS_P2;PMS_P1;PMS_P2;Temp;Humidity;BMP_temperature;BMP_pressure;BME280_temperature;BME280_humidity;BME280_pressure;Samples;Min_cycle;Max_cycle;Signal;HPM_P1;HPM_P2
2022/07/01 00:02:25;;;;;;;7.40;3.75;;;;;;;17.41;49.71;99981.72;6187798;23;20021;-78
2022/07/01 00:04:51;;;;;;;7.38;4.28;;;;;;;17.42;49.84;99988.72;6189172;23;20095;-79
2022/07/01 00:07:36;;;;;;;8.23;5.28;;;;;;;17.40;49.76;99979.16;6162064;23;20127;-79
2022/07/01 00:10:06;;;;;;;7.88;4.05;;;;;;;17.31;49.83;99981.19;6183354;23;20118;-79
2022/07/01 00:12:32;;;;;;;7.13;3.35;;;;;;;17.31;50.06;99975.94;6131975;23;20021;-78
2022/07/01 00:14:58;;;;;;;5.60;3.08;;;;;;;17.26;50.00;99971.75;6183254;23;20475;-81
2022/07/01 00:17:24;;;;;;;7.07;4.80;;;;;;;17.27;50.20;99979.56;6157220;23;20037;-79
2022/07/01 00:19:50;;;;;;;19.05;10.85;;;;;;;17.28;50.62;99986.56;6132102;23;20199;-78
2022/07/01 00:22:17;;;;;;;14.68;9.60;;;;;;;17.23;50.49;99983.22;6183292;23;20013;-78
2022/07/01 00:24:46;;;;;;;26.45;13.55;;;;;;;17.15;50.81;99975.59;6132932;23;20021;-79
2022/07/01 00:27:13;;;;;;;22.27;14.00;;;;;;;17.15;50.86;99986.09;6133281;23;20025;-79
2022/07/01 00:29:39;;;;;;;14.25;8.27;;;;;;;17.12;50.87;99980.94;6158900;23;20447;-79
2022/07/01 00:32:06;;;;;;;5.13;4.13;;;;;;;17.07;51.12;99977.63;6159533;23;20096;-79
2022/07/01 00:34:33;;;;;;;16.52;8.95;;;;;;;17.09;51.18;99986.31;6157566;23;20016;-80
2022/07/01 00:36:59;;;;;;;14.57;8.95;;;;;;;17.04;51.29;99988.25;6156184;23;20051;-80
2022/07/01 00:39:25;;;;;;;13.85;6.55;;;;;;;17.05;51.33;99983.81;6157626;23;20017;-82
2022/07/01 00:41:51;;;;;;;5.45;3.50;;;;;;;17.05;51.25;99984.69;6183836;23;20096;-79
2022/07/01 00:44:21;;;;;;;10.27;6.05;;;;;;;17.05;51.53;99983.81;6184361;23;20040;-79
2022/07/01 00:46:50;;;;;;;6.22;3.20;;;;;;;16.96;51.50;99963.97;6185970;23;20033;-80
2022/07/01 00:49:18;;;;;;;10.85;6.25;;;;;;;17.00;51.60;99978.72;6182474;23;20071;-78
2022/07/01 00:51:44;;;;;;;11.13;5.30;;;;;;;16.93;51.97;99967.53;6183115;23;20027;-78
2022/07/01 00:54:12;;;;;;;8.15;3.70;;;;;;;16.95;51.74;99983.22;6157128;23;20074;-79
2022/07/01 00:56:38;;;;;;;10.40;5.72;;;;;;;16.84;51.99;99973.06;6183714;23;20017;-77
2022/07/01 00:59:04;;;;;;;11.93;7.65;;;;;;;16.81;52.13;99971.41;6184679;23;20355;-79
2022/07/01 01:01:30;;;;;;;9.85;5.40;;;;;;;16.87;52.14;99986.13;6135762;23;20016;-79
2022/07/01 01:03:56;;;;;;;10.48;6.95;;;;;;;16.85;52.17;99982.66;6160441;23;20519;-77
2022/07/01 01:06:22;;;;;;;9.30;4.63;;;;;;;16.80;52.36;99982.81;6156478;23;20017;-76
2022/07/01 01:08:49;;;;;;;9.52;4.72;;;;;;;16.78;52.03;99982.00;6180405;23;20032;-77
2022/07/01 01:11:17;;;;;;;5.15;4.03;;;;;;;16.71;52.46;99977.84;6130848;23;20489;-78
2022/07/01 01:13:43;;;;;;;18.00;9.43;;;;;;;16.76;52.51;99988.25;6156680;23;20120;-78
2022/07/01 01:16:17;;;;;;;6.18;3.72;;;;;;;16.78;52.50;99991.66;6183155;23;20459;-80
2022/07/01 01:18:43;;;;;;;9.52;3.65;;;;;;;16.75;52.65;99992.63;6184090;23;20476;-81
2022/07/01 01:21:09;;;;;;;13.27;7.45;;;;;;;16.79;52.88;99994.25;6184200;23;20045;-79
2022/07/01 01:23:35;;;;;;;7.22;4.10;;;;;;;16.79;52.60;100002.13;6186181;23;20017;-79
2022/07/01 01:26:02;;;;;;;7.80;4.53;;;;;;;16.76;52.82;99998.75;6185398;23;20016;-77
2022/07/01 01:28:28;;;;;;;9.50;4.50;;;;;;;16.76;53.04;99999.59;6156014;23;20431;-79
2022/07/01 01:30:55;;;;;;;6.45;4.43;;;;;;;16.76;52.89;99996.97;6181924;23;20017;-77
2022/07/01 01:33:22;;;;;;;8.23;4.60;;;;;;;16.77;53.05;100000.47;6183418;23;20021;-78
2022/07/01 01:35:47;;;;;;;9.55;5.03;;;;;;;16.82;53.13;100015.19;6156595;23;20457;-76
2022/07/01 01:38:13;;;;;;;6.85;4.70;;;;;;;16.79;53.02;99998.63;6156083;23;20044;-78
2022/07/01 01:40:39;;;;;;;5.28;3.65;;;;;;;16.80;53.11;100003.84;6156874;23;20092;-80
2022/07/01 01:43:05;;;;;;;6.90;3.55;;;;;;;16.91;53.02;100010.53;6157710;23;20017;-77
2022/07/01 01:45:31;;;;;;;5.43;3.78;;;;;;;16.93;52.89;100011.34;6160200;23;20099;-80
2022/07/01 01:47:57;;;;;;;7.13;3.50;;;;;;;16.91;53.03;100003.50;6178421;23;20017;-78
2022/07/01 01:50:23;;;;;;;7.15;3.40;;;;;;;16.98;52.86;100010.34;6202315;23;20087;-78
2022/07/01 01:52:49;;;;;;;10.40;4.10;;;;;;;16.86;52.87;99981.75;6162751;23;20454;-80
2022/07/01 01:55:15;;;;;;;6.88;4.13;;;;;;;17.02;52.89;100001.41;6158999;23;20021;-80
2022/07/01 01:57:41;;;;;;;9.43;4.18;;;;;;;16.98;52.90;99988.44;6201700;23;20017;-79
2022/07/01 02:00:09;;;;;;;7.32;4.10;;;;;;;17.06;52.66;99999.56;6197865;23;20077;-79
2022/07/01 02:02:37;;;;;;;7.68;4.13;;;;;;;17.17;52.72;100015.00;6159505;23;20043;-77
2022/07/01 02:05:05;;;;;;;8.15;3.53;;;;;;;17.14;52.56;100009.81;6186754;23;20052;-78
2022/07/01 02:07:32;;;;;;;8.02;3.95;;;;;;;17.22;52.33;100013.03;6108972;23;20020;-78
2022/07/01 02:09:58;;;;;;;6.25;3.67;;;;;;;17.21;52.24;100013.97;6157424;23;20032;-79
2022/07/01 02:12:24;;;;;;;4.28;2.78;;;;;;;17.25;52.16;100012.09;6131752;23;20021;-78
2022/07/01 02:14:50;;;;;;;5.93;3.63;;;;;;;17.34;52.13;100022.28;6131435;23;20118;-80
2022/07/01 02:17:16;;;;;;;6.63;3.50;;;;;;;17.39;52.13;100022.16;6133346;23;20013;-79
2022/07/01 02:19:42;;;;;;;7.35;3.10;;;;;;;17.43;51.75;100021.16;6156779;23;20024;-80
2022/07/01 02:22:08;;;;;;;8.25;2.58;;;;;;;17.33;51.60;100011.84;6183084;23;20092;-80
2022/07/01 02:24:34;;;;;;;3.55;2.50;;;;;;;17.41;51.53;100026.44;6156782;23;20021;-79
2022/07/01 02:27:00;;;;;;;7.43;2.50;;;;;;;17.46;51.19;100037.69;6160941;23;20099;-78
2022/07/01 02:29:27;;;;;;;3.97;2.58;;;;;;;17.45;51.16;100035.97;6162429;23;20017;-80
2022/07/01 02:31:53;;;;;;;5.80;2.78;;;;;;;17.43;51.07;100026.41;6182629;23;20017;-79
2022/07/01 02:34:19;;;;;;;4.55;2.60;;;;;;;17.49;50.81;100046.38;6155978;23;20355;-78
2022/07/01 02:36:45;;;;;;;5.07;2.50;;;;;;;17.46;50.71;100036.81;6156601;23;20068;-78
2022/07/01 02:39:11;;;;;;;5.15;2.75;;;;;;;17.54;50.51;100044.47;6156549;23;20021;-78
2022/07/01 02:42:22;;;;;;;4.10;2.30;;;;;;;17.57;50.50;100046.97;6182854;23;20017;-81
2022/07/01 02:44:23;;;;;;;3.50;2.45;;;;;;;17.54;50.11;100034.78;6182673;23;20082;-80
2022/07/01 02:46:49;;;;;;;4.22;2.88;;;;;;;17.66;49.93;100057.19;6182552;23;20024;-78
2022/07/01 02:49:16;;;;;;;4.45;2.53;;;;;;;17.70;49.63;100061.44;6182806;23;20501;-80
2022/07/01 02:51:42;;;;;;;6.15;2.40;;;;;;;17.72;49.50;100067.50;6156160;23;20017;-80
2022/07/01 02:54:08;;;;;;;5.25;2.22;;;;;;;17.77;49.40;100067.34;6182998;23;20400;-77
2022/07/01 02:56:34;;;;;;;6.82;2.60;;;;;;;17.74;49.33;100057.78;6182458;23;20028;-79
2022/07/01 02:58:59;;;;;;;5.38;2.70;;;;;;;17.79;49.46;100067.28;6156316;23;20021;-79
2022/07/01 03:01:26;;;;;;;4.50;2.45;;;;;;;17.76;48.88;100065.63;6181877;23;20455;-79
2022/07/01 03:03:53;;;;;;;4.35;2.38;;;;;;;17.86;48.71;100074.06;6156372;23;20020;-77
2022/07/01 03:06:19;;;;;;;5.35;2.50;;;;;;;18.00;48.85;100086.78;6133791;23;20027;-76
2022/07/01 03:08:45;;;;;;;4.40;2.47;;;;;;;18.02;48.43;100069.16;6187226;23;20071;-77
2022/07/01 03:11:11;;;;;;;8.20;2.83;;;;;;;18.14;48.43;100073.97;6188468;23;20077;-77
2022/07/01 03:13:37;;;;;;;5.55;2.42;;;;;;;18.23;48.23;100078.03;6157637;23;20081;-78
2022/07/01 03:16:03;;;;;;;8.63;2.25;;;;;;;18.24;47.96;100090.28;6184129;23;20148;-79
2022/07/01 03:18:29;;;;;;;5.18;2.38;;;;;;;18.28;47.66;100084.00;6155630;23;20044;-78
2022/07/01 03:20:55;;;;;;;3.13;2.28;;;;;;;18.36;47.17;100087.22;6155365;23;20013;-77
2022/07/01 03:23:21;;;;;;;4.72;2.60;;;;;;;18.47;47.34;100091.22;6181695;23;20021;-77
2022/07/01 03:25:48;;;;;;;5.88;2.20;;;;;;;18.48;46.93;100080.66;6181874;23;20028;-80
2022/07/01 03:28:14;;;;;;;5.72;2.40;;;;;;;18.62;46.89;100088.03;6155413;23;20470;-81
2022/07/01 03:30:40;;;;;;;3.80;2.20;;;;;;;18.79;46.56;100095.28;6155679;23;20020;-82
2022/07/01 03:33:06;;;;;;;3.78;2.30;;;;;;;18.91;46.33;100099.22;6156145;23;20021;-79
2022/07/01 03:35:35;;;;;;;6.75;1.90;;;;;;;18.95;46.03;100092.94;6155938;23;20024;-79
2022/07/01 03:38:03;;;;;;;4.13;1.98;;;;;;;19.00;45.50;100092.75;6131336;23;20017;-81
2022/07/01 03:40:30;;;;;;;3.90;2.03;;;;;;;19.08;45.60;100103.88;6155243;23;20017;-79
2022/07/01 03:42:57;;;;;;;4.22;2.10;;;;;;;19.14;45.42;100089.59;6181986;23;20028;-81
2022/07/01 03:45:23;;;;;;;3.70;2.13;;;;;;;19.30;44.97;100097.75;6157586;23;20020;-77
2022/07/01 03:47:49;;;;;;;3.45;2.10;;;;;;;19.44;45.09;100093.66;6132719;23;20024;-79
2022/07/01 03:50:16;;;;;;;3.65;2.10;;;;;;;19.55;44.73;100099.38;6157533;23;20088;-79
2022/07/01 03:52:43;;;;;;;3.03;1.70;;;;;;;19.64;44.30;100091.06;6158336;23;20016;-80
2022/07/01 03:55:10;;;;;;;7.53;2.13;;;;;;;19.80;43.92;100099.19;6139449;23;20021;-78
2022/07/01 03:57:37;;;;;;;4.57;1.80;;;;;;;19.90;43.49;100104.97;6142399;23;20462;-79
2022/07/01 04:00:05;;;;;;;5.93;2.10;;;;;;;20.08;43.30;100110.41;6133514;23;20028;-81
2022/07/01 04:02:31;;;;;;;2.90;1.65;;;;;;;20.05;42.93;100090.25;6184553;23;20017;-80
2022/07/01 04:04:58;;;;;;;5.60;1.83;;;;;;;20.21;42.71;100102.78;6184293;23;20049;-77
2022/07/01 04:07:24;;;;;;;7.55;1.90;;;;;;;20.31;42.43;100104.09;6157477;23;20041;-80
2022/07/01 04:09:52;;;;;;;3.88;1.88;;;;;;;20.41;42.38;100115.09;6157618;23;20013;-81
2022/07/01 04:12:18;;;;;;;4.50;1.83;;;;;;;20.43;42.16;100102.69;6131467;23;20025;-80
2022/07/01 04:14:45;;;;;;;3.40;1.60;;;;;;;20.53;41.84;100109.25;6183254;23;20021;-77
2022/07/01 04:17:11;;;;;;;2.03;1.42;;;;;;;20.60;41.46;100105.41;6133262;23;20082;-80
2022/07/01 04:19:37;;;;;;;3.03;1.45;;;;;;;20.79;41.00;100114.31;6184037;23;20017;-79
2022/07/01 04:24:48;;;;;;;2.42;1.40;;;;;;;20.91;39.72;100113.75;6183278;23;20016;-80
2022/07/01 04:27:14;;;;;;;3.70;1.42;;;;;;;21.00;39.66;100123.03;6128417;23;20084;-79
2022/07/01 04:29:40;;;;;;;2.95;1.35;;;;;;;21.07;39.29;100124.44;6205323;23;20105;-77
2022/07/01 04:32:06;;;;;;;2.70;1.60;;;;;;;21.20;39.11;100120.28;6191571;23;20044;-78
2022/07/01 04:34:32;;;;;;;1.90;1.50;;;;;;;21.30;38.57;100114.56;6186451;23;20012;-80
2022/07/01 04:36:59;;;;;;;3.28;2.40;;;;;;;21.35;38.45;100118.69;6164422;23;20357;-78
2022/07/01 04:39:24;;;;;;;3.53;1.33;;;;;;;21.40;37.79;100115.84;6177807;23;20013;-78
2022/07/01 04:41:59;;;;;;;6.60;1.10;;;;;;;21.41;37.74;100120.16;6194857;23;20421;-79
2022/07/01 04:44:32;;;;;;;6.07;1.05;;;;;;;21.44;37.65;100116.53;6159235;23;20017;-79
2022/07/01 04:46:59;;;;;;;3.35;1.17;;;;;;;21.50;37.04;100117.06;6182231;23;20021;-80
2022/07/01 04:49:25;;;;;;;1.45;1.30;;;;;;;21.55;36.71;100113.34;6182425;23;20526;-80
2022/07/01 04:51:52;;;;;;;3.17;1.20;;;;;;;21.70;36.19;100117.06;6132977;23;20044;-81
2022/07/01 04:54:19;;;;;;;2.40;1.30;;;;;;;21.86;35.84;100111.81;6156933;23;20021;-81
2022/07/01 04:56:45;;;;;;;2.03;1.52;;;;;;;21.94;35.61;100121.13;6156511;23;20023;-80
2022/07/01 04:59:12;;;;;;;4.05;1.30;;;;;;;21.90;35.83;100119.56;6132328;23;20420;-79
2022/07/01 05:01:39;;;;;;;2.85;1.35;;;;;;;21.95;35.85;100122.81;6182016;23;20454;-77
2022/07/01 05:04:05;;;;;;;1.88;1.27;;;;;;;21.95;35.29;100114.88;6182615;23;20017;-79
2022/07/01 05:06:31;;;;;;;2.20;1.20;;;;;;;22.08;35.14;100109.78;6181628;23;20470;-78
2022/07/01 05:08:57;;;;;;;2.08;1.20;;;;;;;22.20;34.75;100110.09;6157243;23;20021;-77
2022/07/01 05:11:23;;;;;;;2.47;1.15;;;;;;;22.38;34.67;100124.16;6157076;23;20359;-82
2022/07/01 05:13:49;;;;;;;1.85;1.20;;;;;;;22.51;34.55;100132.34;6181998;23;20043;-78
2022/07/01 05:16:17;;;;;;;3.10;1.30;;;;;;;22.63;34.49;100136.13;6183347;23;20071;-80
2022/07/01 05:24:14;;;;;;;4.10;1.02;;;;;;;22.70;33.46;100134.84;6135425;23;20052;-78
2022/07/01 05:26:40;;;;;;;2.58;1.17;;;;;;;22.90;33.29;100140.88;6187660;23;20017;-79
2022/07/01 05:29:06;;;;;;;4.43;1.50;;;;;;;22.93;32.93;100127.44;6182803;23;20417;-79
2022/07/01 05:31:33;;;;;;;4.00;1.40;;;;;;;23.04;33.17;100133.00;6182371;23;20208;-78
2022/07/01 05:33:59;;;;;;;3.45;1.23;;;;;;;23.13;33.11;100135.13;6183454;23;20347;-79
2022/07/01 05:36:25;;;;;;;2.33;1.13;;;;;;;23.19;32.98;100131.28;6182420;23;20017;-77
2022/07/01 05:38:51;;;;;;;4.03;1.25;;;;;;;23.17;32.78;100128.72;6185523;23;20024;-78
2022/07/01 05:41:18;;;;;;;6.20;1.25;;;;;;;23.18;32.73;100134.88;6184740;23;20477;-79
2022/07/01 05:43:45;;;;;;;2.05;1.38;;;;;;;23.17;32.91;100127.88;6183158;23;20021;-80
2022/07/01 05:46:11;;;;;;;8.63;3.22;;;;;;;23.13;32.89;100132.47;6183561;23;20017;-78
2022/07/01 05:48:37;;;;;;;4.57;2.10;;;;;;;23.20;33.08;100132.97;6180723;23;20095;-79
2022/07/01 05:51:03;;;;;;;4.50;1.83;;;;;;;23.30;32.62;100128.03;6155896;23;20071;-83
2022/07/01 05:53:29;;;;;;;6.90;2.53;;;;;;;23.71;32.50;100143.41;6132669;23;20048;-81
2022/07/01 05:55:58;;;;;;;4.28;1.75;;;;;;;24.80;31.81;100118.31;6183226;23;20017;-82
2022/07/01 05:58:25;;;;;;;3.15;1.30;;;;;;;26.80;29.54;100110.28;6131550;23;20358;-79
2022/07/01 06:00:51;;;;;;;4.78;1.48;;;;;;;29.00;27.07;100095.41;6183337;23;20044;-81
2022/07/01 06:03:17;;;;;;;3.97;1.50;;;;;;;30.59;25.11;100086.47;6182383;23;20024;-84
2022/07/01 06:05:43;;;;;;;4.68;1.27;;;;;;;32.11;23.80;100110.28;6135426;23;20024;-81
2022/07/01 06:08:10;;;;;;;6.00;1.80;;;;;;;33.51;21.57;100093.25;6183706;23;20092;-84
2022/07/01 06:10:36;;;;;;;2.42;1.30;;;;;;;34.53;20.89;100074.66;6160078;23;20020;-82
2022/07/01 06:13:04;;;;;;;3.05;1.40;;;;;;;36.05;19.60;100106.91;6188182;23;20529;-82
2022/07/01 06:15:31;;;;;;;4.80;1.48;;;;;;;37.27;18.39;100093.97;6188091;23;20020;-81
2022/07/01 06:17:57;;;;;;;2.53;1.20;;;;;;;37.76;17.79;100071.88;6189837;23;20021;-81
2022/07/01 06:20:24;;;;;;;5.47;1.35;;;;;;;38.16;16.97;100071.63;6187318;23;20020;-82
2022/07/01 06:22:50;;;;;;;3.83;1.20;;;;;;;38.57;15.73;100111.03;6183953;23;20025;-80
2022/07/01 06:25:16;;;;;;;4.65;1.98;;;;;;;38.80;14.93;100082.84;6182484;23;20148;-79
2022/07/01 06:27:44;;;;;;;3.38;1.50;;;;;;;39.79;14.01;100105.81;6182595;23;20017;-82
2022/07/01 06:30:11;;;;;;;4.18;1.42;;;;;;;40.16;14.13;100098.28;6184629;23;20020;-81
2022/07/01 06:32:38;;;;;;;3.53;1.77;;;;;;;40.85;13.44;100103.00;6157006;23;20540;-81
2022/07/01 06:35:05;;;;;;;4.47;1.80;;;;;;;41.17;12.78;100106.84;6156627;23;20020;-79
2022/07/01 06:37:33;;;;;;;4.65;1.23;;;;;;;41.28;11.92;100112.72;6182790;23;20104;-80
2022/07/01 06:40:00;;;;;;;5.95;1.33;;;;;;;41.76;11.61;100130.81;6183660;23;20020;-81
2022/07/01 06:42:27;;;;;;;5.40;2.22;;;;;;;41.86;10.91;100123.03;6163151;23;20025;-81
2022/07/01 06:44:53;;;;;;;6.45;1.60;;;;;;;42.11;10.80;100105.97;6185160;23;20104;-84
2022/07/01 06:47:19;;;;;;;7.57;1.70;;;;;;;42.24;10.70;100097.75;6181846;23;20460;-80
2022/07/01 06:49:45;;;;;;;6.70;2.10;;;;;;;42.32;10.87;100113.06;6181307;23;20465;-81
2022/07/01 06:52:11;;;;;;;4.32;1.17;;;;;;;42.86;10.48;100130.13;6183262;23;20016;-80
2022/07/01 06:54:37;;;;;;;3.83;1.50;;;;;;;42.97;10.19;100133.19;6183018;23;20075;-80
2022/07/01 06:57:04;;;;;;;3.67;1.23;;;;;;;43.42;9.51;100132.28;6182814;23;20021;-81
2022/07/01 06:59:30;;;;;;;4.28;1.15;;;;;;;44.08;9.18;100130.03;6183477;23;20013;-81
2022/07/01 07:01:58;;;;;;;3.85;1.30;;;;;;;43.96;8.91;100102.53;6158284;23;20020;-84
2022/07/01 07:04:25;;;;;;;18.15;1.60;;;;;;;43.91;8.83;100119.66;6180902;23;20021;-80
2022/07/01 07:06:51;;;;;;;19.23;2.78;;;;;;;44.13;8.87;100132.09;6181462;23;20017;-86
2022/07/01 07:09:17;;;;;;;4.78;1.30;;;;;;;44.87;8.77;100110.09;6181282;23;20108;-81
2022/07/01 07:11:44;;;;;;;5.25;1.20;;;;;;;45.38;7.92;100117.97;6181058;23;20021;-81
2022/07/01 07:14:10;;;;;;;3.05;1.40;;;;;;;45.40;8.19;100129.53;6183562;23;20040;-80
2022/07/01 07:16:36;;;;;;;4.53;1.42;;;;;;;45.80;8.02;100114.31;6183103;23;20023;-82
2022/07/01 07:19:02;;;;;;;1.58;0.88;;;;;;;45.97;7.49;100098.75;6181849;23;20100;-83
2022/07/01 07:21:28;;;;;;;1.85;1.05;;;;;;;45.60;6.88;100114.63;6191999;23;20021;-84
2022/07/01 07:23:54;;;;;;;4.97;1.33;;;;;;;45.94;7.40;100126.69;6186488;23;20020;-84
2022/07/01 07:26:21;;;;;;;5.13;1.27;;;;;;;45.93;7.04;100124.22;6184200;23;20016;-82
2022/07/01 07:28:47;;;;;;;2.75;0.98;;;;;;;46.50;6.99;100112.53;6158793;23;20021;-80
2022/07/01 07:31:13;;;;;;;2.72;1.10;;;;;;;46.40;6.34;100101.28;6185552;23;20017;-82
2022/07/01 07:33:39;;;;;;;7.13;1.50;;;;;;;46.44;6.48;100130.84;6186621;23;20016;-80
2022/07/01 07:36:05;;;;;;;3.80;1.90;;;;;;;47.26;6.62;100132.63;6187993;23;20016;-80
2022/07/01 07:38:31;;;;;;;4.18;2.58;;;;;;;47.42;6.48;100128.22;6200193;23;20098;-82
2022/07/01 07:41:03;;;;;;;7.97;5.70;;;;;;;47.53;5.94;100112.66;6171731;23;20340;-84
2022/07/01 07:43:33;;;;;;;7.45;5.38;;;;;;;48.18;6.04;100133.22;6189904;23;20025;-82
2022/07/01 07:45:59;;;;;;;5.97;5.38;;;;;;;48.10;5.49;100130.88;6160907;23;20470;-82
2022/07/01 07:48:25;;;;;;;3.72;2.10;;;;;;;47.96;5.61;100124.91;6183319;23;20043;-79
2022/07/01 07:50:52;;;;;;;6.93;2.67;;;;;;;48.21;5.67;100124.44;6157706;23;20017;-83
2022/07/01 07:53:18;;;;;;;3.35;1.40;;;;;;;47.91;5.57;100136.69;6186740;23;20017;-81
2022/07/01 07:55:45;;;;;;;6.20;2.97;;;;;;;48.01;5.61;100148.94;6163386;23;20016;-81
2022/07/01 07:58:11;;;;;;;4.68;1.70;;;;;;;48.06;5.08;100155.38;6202734;23;20021;-82
2022/07/01 08:00:37;;;;;;;2.97;1.92;;;;;;;47.94;5.44;100127.94;6182507;23;20111;-84
2022/07/01 08:03:04;;;;;;;3.33;2.78;;;;;;;48.49;5.42;100163.09;6184226;23;20462;-83
2022/07/01 08:05:29;;;;;;;1.88;1.50;;;;;;;48.63;5.26;100155.25;6193944;23;20021;-83
2022/07/01 08:07:55;;;;;;;4.80;1.88;;;;;;;48.21;6.12;100138.22;6164894;23;20086;-84
2022/07/01 08:10:21;;;;;;;2.83;1.70;;;;;;;48.70;5.31;100153.16;6197069;23;20004;-82
2022/07/01 08:12:48;;;;;;;4.35;1.40;;;;;;;48.45;5.70;100139.88;6210451;23;20008;-82
2022/07/01 08:15:14;;;;;;;3.30;1.30;;;;;;;48.53;5.30;100147.72;6198368;23;20406;-81
2022/07/01 08:17:40;;;;;;;4.45;1.50;;;;;;;48.24;5.77;100172.69;6195632;23;20023;-83
2022/07/01 08:20:08;;;;;;;8.95;1.40;;;;;;;48.23;5.80;100168.28;6185134;23;20424;-84
2022/07/01 08:22:34;;;;;;;2.42;1.23;;;;;;;47.99;5.57;100131.84;6158207;23;20021;-81
2022/07/01 08:25:02;;;;;;;8.93;1.45;;;;;;;48.04;5.12;100151.19;6158427;23;20112;-80
2022/07/01 08:27:35;;;;;;;5.10;1.50;;;;;;;48.09;5.55;100119.03;6161950;23;20095;-84
2022/07/01 08:30:35;;;;;;;5.57;1.35;;;;;;;48.88;5.49;100175.97;6157549;23;20500;-82
2022/07/01 08:33:01;;;;;;;4.32;1.55;;;;;;;48.24;6.04;100151.47;6184275;23;20462;-81
2022/07/01 08:35:28;;;;;;;2.95;1.42;;;;;;;47.52;5.90;100153.16;6183405;23;20469;-82
2022/07/01 08:37:57;;;;;;;5.00;1.98;;;;;;;47.40;5.62;100160.66;6183949;23;20016;-80
2022/07/01 08:40:30;;;;;;;5.03;2.88;;;;;;;47.27;5.55;100186.63;6185495;23;20100;-81
2022/07/01 08:43:02;;;;;;;5.18;1.77;;;;;;;47.27;5.85;100168.19;6186737;23;20509;-84
2022/07/01 08:45:31;;;;;;;6.35;1.50;;;;;;;47.55;5.85;100160.09;6187725;23;20021;-81
2022/07/01 08:48:02;;;;;;;5.53;4.25;;;;;;;47.94;5.61;100136.22;6161928;23;20016;-80
2022/07/01 08:50:35;;;;;;;3.88;2.10;;;;;;;47.93;5.05;100159.31;6189341;23;20044;-82
2022/07/01 08:53:06;;;;;;;4.30;1.80;;;;;;;47.34;5.55;100174.34;6191216;23;20041;-81
2022/07/01 08:56:40;;;;;;;2.03;1.30;;;;;;;47.41;5.23;100165.09;6191748;23;20021;-79
2022/07/01 08:58:24;;;;;;;5.07;1.80;;;;;;;46.66;5.96;100132.91;6207134;23;20008;-85
2022/07/01 09:00:57;;;;;;;4.60;2.25;;;;;;;47.17;5.60;100151.44;6195443;23;20017;-85
2022/07/01 09:03:29;;;;;;;4.80;1.48;;;;;;;47.26;5.86;100108.69;6184481;23;20017;-81
2022/07/01 09:05:55;;;;;;;3.83;1.63;;;;;;;47.23;5.95;100133.16;6159788;23;20016;-83
2022/07/01 09:08:27;;;;;;;2.78;1.42;;;;;;;47.66;5.35;100143.50;6189251;23;20023;-79
2022/07/01 09:10:54;;;;;;;4.47;1.80;;;;;;;47.48;5.58;100190.56;6187883;23;20035;-81
2022/07/01 09:13:20;;;;;;;3.42;1.90;;;;;;;46.95;5.75;100160.44;6135920;23;20068;-80
2022/07/01 09:15:48;;;;;;;5.10;1.80;;;;;;;46.94;5.46;100156.00;6158054;23;20330;-82
2022/07/01 09:18:19;;;;;;;4.97;1.40;;;;;;;46.72;5.61;100189.69;6157856;23;20039;-79
2022/07/01 09:20:50;;;;;;;3.42;1.30;;;;;;;45.73;5.96;100156.47;6185420;23;20312;-81
2022/07/01 09:23:18;;;;;;;3.95;1.80;;;;;;;46.49;5.71;100179.63;6186481;23;20017;-80
2022/07/01 09:25:51;;;;;;;1.50;1.40;;;;;;;47.60;5.32;100183.06;6183057;23;20418;-81
2022/07/01 09:28:23;;;;;;;7.93;1.40;;;;;;;47.31;5.26;100183.13;6183569;23;20538;-81
2022/07/01 09:31:00;;;;;;;4.78;1.50;;;;;;;46.95;5.60;100176.13;6159282;23;20103;-83
2022/07/01 09:33:28;;;;;;;4.75;1.40;;;;;;;46.80;5.56;100165.63;6162022;23;20021;-82
2022/07/01 09:35:56;;;;;;;2.47;1.30;;;;;;;46.98;5.43;100175.63;6160370;23;20051;-81
2022/07/01 09:38:24;;;;;;;4.40;1.40;;;;;;;46.36;5.82;100161.44;6134391;23;20036;-81
2022/07/01 09:40:54;;;;;;;6.15;1.30;;;;;;;46.69;5.43;100170.91;6184383;23;20043;-86
2022/07/01 09:43:30;;;;;;;5.35;1.50;;;;;;;46.88;5.70;100168.84;6187082;23;20354;-82
2022/07/01 09:46:08;;;;;;;2.90;1.10;;;;;;;46.09;6.05;100161.97;6159175;23;20028;-82
2022/07/01 09:48:34;;;;;;;3.55;1.40;;;;;;;45.95;5.73;100177.84;6183783;23;20351;-78
2022/07/01 09:51:04;;;;;;;4.25;1.50;;;;;;;46.06;5.18;100183.63;6182423;23;20071;-79
2022/07/01 09:53:32;;;;;;;4.93;1.30;;;;;;;46.04;5.59;100172.84;6181466;23;20063;-77
2022/07/01 09:56:01;;;;;;;6.45;1.30;;;;;;;46.38;5.81;100181.28;6182685;23;20074;-76
2022/07/01 09:58:28;;;;;;;3.10;1.20;;;;;;;46.63;5.53;100174.66;6182932;23;20024;-76
2022/07/01 10:00:55;;;;;;;6.38;1.20;;;;;;;46.07;5.45;100171.53;6180936;23;20636;-76
2022/07/01 10:03:22;;;;;;;4.55;1.30;;;;;;;45.73;6.05;100167.44;6182973;23;20021;-76
2022/07/01 10:05:54;;;;;;;2.70;1.50;;;;;;;45.46;5.32;100179.97;6156299;23;20013;-77
2022/07/01 10:08:49;;;;;;;3.17;1.20;;;;;;;44.73;6.24;100183.47;6182751;23;20354;-76
2022/07/01 10:11:47;;;;;;;2.83;1.30;;;;;;;45.02;6.06;100188.38;6180476;23;20147;-75
2022/07/01 10:14:14;;;;;;;2.50;1.40;;;;;;;44.82;5.80;100194.97;6156346;23;20020;-77
2022/07/01 10:16:49;;;;;;;4.25;1.40;;;;;;;45.12;5.70;100185.94;6180718;23;20048;-75
2022/07/01 10:19:24;;;;;;;3.72;1.55;;;;;;;44.81;5.78;100190.53;6182380;23;20450;-78
2022/07/01 10:21:52;;;;;;;4.00;1.50;;;;;;;44.62;5.96;100198.81;6180650;23;20035;-75
2022/07/01 10:24:19;;;;;;;3.50;1.40;;;;;;;43.67;6.58;100178.03;6180783;23;20044;-76
2022/07/01 10:26:47;;;;;;;6.78;1.60;;;;;;;43.30;6.94;100200.59;6182016;23;20021;-76
2022/07/01 10:29:33;;;;;;;7.13;1.33;;;;;;;41.62;7.45;100193.63;6180556;23;20025;-75
2022/07/01 10:32:27;;;;;;;3.25;1.30;;;;;;;39.34;8.07;100184.09;6180420;23;20051;-78
2022/07/01 10:35:07;;;;;;;4.75;1.60;;;;;;;37.20;9.03;100197.75;6182761;23;20101;-75
2022/07/01 10:37:33;;;;;;;3.42;1.35;;;;;;;35.11;10.19;100186.47;6156487;23;20521;-75
2022/07/01 10:40:03;;;;;;;6.28;1.40;;;;;;;33.80;10.37;100200.84;6185148;23;20017;-78
2022/07/01 10:42:55;;;;;;;3.25;1.50;;;;;;;32.77;11.68;100201.88;6184559;23;20013;-77
2022/07/01 10:45:21;;;;;;;1.75;1.40;;;;;;;32.05;11.53;100199.66;6187329;23;20020;-77
2022/07/01 10:47:47;;;;;;;13.82;2.05;;;;;;;31.13;12.21;100185.56;6186034;23;20017;-76
2022/07/01 10:50:16;;;;;;;6.57;1.60;;;;;;;30.52;12.35;100195.34;6182182;23;20227;-75
2022/07/01 10:53:02;;;;;;;2.85;1.38;;;;;;;29.79;13.44;100198.81;6156843;23;20071;-77
2022/07/01 10:55:39;;;;;;;9.85;1.63;;;;;;;29.33;13.55;100194.53;6182844;23;20463;-77
2022/07/01 10:58:06;;;;;;;3.83;1.10;;;;;;;28.93;14.13;100194.09;6158385;23;20089;-77
2022/07/01 11:00:35;;;;;;;4.57;2.67;;;;;;;28.86;14.84;100199.09;6158544;23;20017;-76
2022/07/01 11:03:10;;;;;;;4.00;1.45;;;;;;;28.70;15.22;100209.31;6157476;23;20044;-79
2022/07/01 11:05:41;;;;;;;3.05;1.40;;;;;;;28.36;15.67;100201.22;6158041;23;20016;-76
2022/07/01 11:08:09;;;;;;;7.82;2.22;;;;;;;28.16;16.12;100211.66;6182827;23;20024;-77
2022/07/01 11:10:36;;;;;;;4.07;1.52;;;;;;;27.66;16.00;100201.09;6133363;23;20091;-75
2022/07/01 11:13:07;;;;;;;3.78;1.30;;;;;;;27.50;16.27;100210.28;6182601;23;20091;-75
2022/07/01 11:15:39;;;;;;;9.05;1.73;;;;;;;27.22;16.69;100206.06;6157795;23;20546;-75
2022/07/01 11:18:05;;;;;;;3.78;1.15;;;;;;;27.00;16.57;100207.63;6181680;23;20013;-77
2022/07/01 11:20:32;;;;;;;3.97;1.25;;;;;;;26.83;17.30;100199.94;6183513;23;20017;-77
2022/07/01 11:22:59;;;;;;;2.78;1.40;;;;;;;26.70;17.25;100207.94;6183949;23;20021;-75
2022/07/01 11:25:26;;;;;;;3.00;1.10;;;;;;;26.54;16.66;100200.16;6133856;23;20021;-76
2022/07/01 11:27:53;;;;;;;5.38;1.23;;;;;;;26.23;16.59;100200.47;6157426;23;20024;-75
2022/07/01 11:30:23;;;;;;;2.17;1.23;;;;;;;26.16;17.02;100197.34;6157039;23;20462;-76
2022/07/01 11:32:57;;;;;;;4.80;1.45;;;;;;;26.06;17.80;100201.59;6183746;23;20068;-77
2022/07/01 11:41:54;;;;;;;4.43;1.60;;;;;;;25.00;17.70;100129.47;6161979;23;20471;-75
2022/07/01 11:44:37;;;;;;;7.68;5.18;;;;;;;25.26;17.77;100195.22;6147654;23;20761;-79
2022/07/01 11:47:22;;;;;;;20.73;16.38;;;;;;;25.19;18.57;100195.69;6120267;23;20127;-76
2022/07/01 11:50:02;;;;;;;4.78;1.92;;;;;;;24.98;18.79;100204.09;6165252;23;20012;-74